Time;durP1;ratioP1;P1;durP2;ratioP2;P2;SDS_P1;SDS_P2;PMS_P1;PMS_P2;Temp;Humidity;BMP_temperature;BMP_pressure;BME280_temperature;BME280_humidity;BME280_pressure;Samples;Min_cycle;Max_cycle;Signal;HPM_P1;HPM_P2
2023/01/21 00:01:12;;;;;;;53.80;31.50;;;;;;;2.88;82.36;99278.06;107257;1258;71487;-41
2023/01/21 00:03:39;;;;;;;49.70;30.20;;;;;;;2.79;82.70;99269.95;107301;1257;60840;-41
2023/01/21 00:06:09;;;;;;;56.10;29.90;;;;;;;2.75;82.86;99271.55;107218;1262;60345;-40
2023/01/21 00:08:36;;;;;;;51.50;29.70;;;;;;;2.74;82.91;99276.05;107243;1259;74156;-40
2023/01/21 00:11:05;;;;;;;59.10;31.60;;;;;;;2.69;82.92;99274.58;107267;1262;68706;-40
2023/01/21 00:13:34;;;;;;;52.20;30.40;;;;;;;2.63;83.25;99271.32;107286;1258;72567;-40
2023/01/21 00:16:02;;;;;;;51.50;30.60;;;;;;;2.64;83.30;99273.21;107246;1257;60932;-41
2023/01/21 00:18:29;;;;;;;54.10;31.00;;;;;;;2.61;83.35;99270.86;107319;1258;59529;-41
2023/01/21 00:20:56;;;;;;;57.60;31.20;;;;;;;2.54;83.34;99265.12;107013;1258;72756;-41
2023/01/21 00:23:24;;;;;;;53.50;30.60;;;;;;;2.50;83.85;99265.89;107247;1262;69792;-41
2023/01/21 00:26:00;;;;;;;54.50;31.30;;;;;;;2.50;83.51;99266.64;107310;1263;72148;-41
2023/01/21 00:28:31;;;;;;;55.70;29.50;;;;;;;2.46;83.79;99264.39;107154;1257;60483;-41
2023/01/21 00:30:59;;;;;;;51.90;30.30;;;;;;;2.41;83.90;99266.23;107240;1263;60046;-41
2023/01/21 00:33:28;;;;;;;52.00;29.40;;;;;;;2.43;83.81;99268.59;107242;1262;73449;-41
2023/01/21 00:36:00;;;;;;;56.90;31.20;;;;;;;2.39;83.94;99263.02;107252;1263;68287;-39
2023/01/21 00:38:27;;;;;;;53.40;30.30;;;;;;;2.30;84.21;99262.75;107266;1259;71988;-40
2023/01/21 00:41:02;;;;;;;54.80;30.40;;;;;;;2.29;84.41;99264.30;107246;1257;60396;-40
2023/01/21 00:43:29;;;;;;;55.10;32.10;;;;;;;2.27;84.56;99265.66;107234;1258;61271;-40
2023/01/21 00:45:58;;;;;;;56.30;31.10;;;;;;;2.20;84.60;99259.75;107255;1258;74099;-39
2023/01/21 00:48:27;;;;;;;55.20;31.00;;;;;;;2.17;84.84;99262.98;107260;1261;69888;-41
2023/01/21 00:50:57;;;;;;;55.90;32.00;;;;;;;2.19;84.64;99268.70;107248;1262;72500;-40
2023/01/21 00:53:30;;;;;;;56.40;31.20;;;;;;;2.15;84.80;99271.27;107269;1258;60775;-40
2023/01/21 00:56:04;;;;;;;57.10;30.50;;;;;;;2.10;84.94;99271.55;107276;1257;61258;-40
2023/01/21 00:58:32;;;;;;;60.60;32.00;;;;;;;2.12;85.07;99269.05;107249;1262;73113;-41
2023/01/21 01:01:08;;;;;;;61.00;32.90;;;;;;;2.11;84.87;99268.91;107079;1257;69792;-40
2023/01/21 01:03:36;;;;;;;53.20;31.70;;;;;;;2.05;85.19;99261.64;107250;1263;73856;-40
2023/01/21 01:06:12;;;;;;;61.30;32.50;;;;;;;2.02;85.26;99270.48;107271;1264;60663;-40
2023/01/21 01:08:39;;;;;;;59.30;32.80;;;;;;;2.03;84.99;99268.05;107187;1262;61333;-40
2023/01/21 01:11:07;;;;;;;59.20;33.00;;;;;;;2.00;85.24;99267.81;107220;1257;75321;-40
2023/01/21 01:13:34;;;;;;;61.60;32.50;;;;;;;1.97;85.23;99272.48;107222;1262;69723;-40
2023/01/21 01:16:01;;;;;;;56.90;31.60;;;;;;;2.02;85.20;99270.90;107212;1257;72761;-40
2023/01/21 01:18:29;;;;;;;64.00;34.40;;;;;;;2.02;85.04;99266.95;107248;1263;60543;-40
2023/01/21 01:20:56;;;;;;;58.10;33.00;;;;;;;2.00;85.17;99273.52;107273;1257;60364;-40
2023/01/21 01:23:23;;;;;;;58.90;34.10;;;;;;;1.98;85.14;99278.11;107234;1257;75154;-40
2023/01/21 01:26:01;;;;;;;61.90;34.40;;;;;;;2.00;84.82;99276.68;107263;1257;69844;-40
2023/01/21 01:28:28;;;;;;;65.50;35.80;;;;;;;1.97;84.80;99270.51;107207;1257;74181;-40
2023/01/21 01:30:56;;;;;;;59.90;32.70;;;;;;;1.91;85.04;99271.92;107182;1257;62432;-40
2023/01/21 01:33:24;;;;;;;60.10;33.40;;;;;;;1.93;84.73;99265.99;107272;1263;60641;-40
2023/01/21 01:35:51;;;;;;;64.70;35.00;;;;;;;1.95;84.66;99267.86;107237;1258;74051;-40
2023/01/21 01:38:20;;;;;;;65.40;35.20;;;;;;;1.91;84.65;99263.15;107236;1257;69793;-40
2023/01/21 01:40:49;;;;;;;67.50;34.00;;;;;;;1.85;84.98;99265.49;107296;1263;71908;-40
2023/01/21 01:43:21;;;;;;;62.20;33.60;;;;;;;1.85;85.07;99267.20;107237;1257;60339;-40
2023/01/21 01:45:48;;;;;;;67.40;36.20;;;;;;;1.89;84.85;99268.77;107255;1257;59574;-40
2023/01/21 01:48:19;;;;;;;75.00;38.90;;;;;;;1.86;84.82;99267.92;107231;1257;74824;-40
2023/01/21 01:50:46;;;;;;;65.60;35.30;;;;;;;1.81;84.99;99267.30;107269;1257;68998;-40
2023/01/21 01:53:13;;;;;;;65.50;36.00;;;;;;;1.80;84.91;99265.72;107085;1257;73673;-40
2023/01/21 01:55:40;;;;;;;71.70;37.10;;;;;;;1.80;84.92;99269.94;107059;1257;60673;-40
2023/01/21 01:58:10;;;;;;;81.70;39.40;;;;;;;1.78;85.24;99270.64;107034;1258;61447;-40
2023/01/21 02:00:37;;;;;;;67.20;37.00;;;;;;;1.74;85.18;99269.48;107247;1257;73860;-40
2023/01/21 02:05:51;;;;;;;77.40;39.20;;;;;;;1.77;84.93;99277.08;107080;1263;73711;-40
2023/01/21 02:08:21;;;;;;;71.20;36.50;;;;;;;1.70;85.32;99272.99;107248;1257;60793;-40
2023/01/21 02:10:48;;;;;;;69.90;38.00;;;;;;;1.72;85.58;99271.98;107244;1263;61553;-40
2023/01/21 02:13:15;;;;;;;74.80;39.20;;;;;;;1.75;85.32;99261.94;107280;1261;75040;-40
2023/01/21 02:16:01;;;;;;;77.70;39.00;;;;;;;1.73;85.25;99258.95;107213;1258;69946;-40
2023/01/21 02:18:58;;;;;;;69.60;37.10;;;;;;;1.72;85.45;99259.82;107242;1257;72680;-40
2023/01/21 02:21:42;;;;;;;73.10;37.60;;;;;;;1.74;85.31;99264.95;107260;1257;60666;-40
2023/01/21 02:24:40;;;;;;;74.40;39.10;;;;;;;1.71;85.26;99265.56;107261;1263;60466;-40
2023/01/21 02:27:15;;;;;;;67.20;37.80;;;;;;;1.67;85.56;99278.64;107204;1257;74011;-40
2023/01/21 02:30:11;;;;;;;71.40;40.50;;;;;;;1.71;85.07;99281.64;107245;1257;69926;-40
2023/01/21 02:32:39;;;;;;;79.40;40.30;;;;;;;1.72;85.21;99298.67;107247;1258;73809;-40
2023/01/21 02:35:12;;;;;;;71.20;36.30;;;;;;;1.66;85.20;99288.59;107239;1257;60441;-40
2023/01/21 02:38:01;;;;;;;73.10;38.50;;;;;;;1.70;85.13;99310.11;107215;1264;61432;-40
2023/01/21 02:40:37;;;;;;;72.50;39.50;;;;;;;1.73;85.04;99324.20;107279;1257;75099;-40
2023/01/21 02:43:14;;;;;;;75.70;37.80;;;;;;;1.71;85.02;99296.18;107239;1257;69979;-40
2023/01/21 02:45:46;;;;;;;76.80;40.10;;;;;;;1.73;84.98;99307.14;107087;1257;74077;-40
2023/01/21 02:48:15;;;;;;;82.10;40.20;;;;;;;1.74;84.90;99312.55;107217;1259;60536;-40
2023/01/21 02:50:44;;;;;;;79.60;39.70;;;;;;;1.73;84.90;99327.52;107074;1260;61464;-40
2023/01/21 02:53:31;;;;;;;70.90;37.00;;;;;;;1.71;85.03;99335.67;106323;1260;1003643;-40
2023/01/21 02:56:10;;;;;;;68.70;37.00;;;;;;;1.79;84.83;99324.55;107089;1259;68135;-40
2023/01/21 02:58:42;;;;;;;75.40;39.70;;;;;;;1.80;84.90;99319.55;107089;1259;73969;-40
2023/01/21 03:01:35;;;;;;;73.40;38.60;;;;;;;1.76;84.60;99308.52;107068;1260;60427;-40
2023/01/21 03:04:24;;;;;;;67.00;36.40;;;;;;;1.79;84.74;99301.84;107013;1260;61374;-40
2023/01/21 03:07:15;;;;;;;73.70;39.10;;;;;;;1.82;84.58;99301.20;107103;1260;75079;-40
2023/01/21 03:09:42;;;;;;;71.90;38.60;;;;;;;1.80;84.33;99290.09;107070;1262;68416;-40
2023/01/21 03:12:36;;;;;;;66.60;35.50;;;;;;;1.77;84.28;99286.54;107111;1260;74065;-40
2023/01/21 03:17:58;;;;;;;69.00;38.30;;;;;;;1.78;84.27;99282.98;106955;1260;61573;-40
2023/01/21 03:20:50;;;;;;;77.90;37.40;;;;;;;1.76;84.44;99281.04;107089;1263;73485;-40
2023/01/21 03:23:23;;;;;;;73.10;37.80;;;;;;;1.81;84.15;99300.34;107025;1258;69888;-40
2023/01/21 03:25:50;;;;;;;72.30;38.60;;;;;;;1.83;83.94;99309.48;107071;1259;71926;-40
2023/01/21 03:28:20;;;;;;;70.50;37.10;;;;;;;1.83;83.85;99303.23;107128;1260;59750;-40
2023/01/21 03:30:54;;;;;;;;;;;;;;;1.82;83.96;99300.36;107096;1259;61669;-40
2023/01/21 03:33:21;;;;;;;67.90;36.80;;;;;;;1.81;83.94;99305.79;107115;1261;72799;-40
2023/01/21 03:35:48;;;;;;;68.70;38.10;;;;;;;1.80;83.94;99315.97;107092;1260;69770;-40
2023/01/21 03:38:19;;;;;;;69.90;38.40;;;;;;;1.82;83.84;99320.64;107128;1261;73673;-40
2023/01/21 03:40:58;;;;;;;70.60;38.00;;;;;;;1.82;83.79;99309.77;107020;1259;61350;-41
2023/01/21 03:43:25;;;;;;;69.90;37.80;;;;;;;1.85;83.48;99311.10;107101;1260;61215;-40
2023/01/21 03:46:03;;;;;;;70.00;39.10;;;;;;;1.81;83.61;99313.59;107130;1260;75113;-40
2023/01/21 03:48:50;;;;;;;73.30;37.50;;;;;;;1.77;83.87;99315.23;107087;1260;70045;-40
2023/01/21 03:51:20;;;;;;;75.60;37.70;;;;;;;1.79;83.48;99300.43;107106;1261;73816;-40
2023/01/21 03:53:51;;;;;;;;;;;;;;;1.78;83.60;99304.33;107060;1261;60789;-40
2023/01/21 03:56:18;;;;;;;72.70;37.30;;;;;;;1.71;83.77;99309.42;107124;1262;61147;-40
2023/01/21 03:58:45;;;;;;;67.80;35.50;;;;;;;1.69;84.05;99302.36;107093;1259;73147;-40
2023/01/21 04:01:12;;;;;;;70.30;37.50;;;;;;;1.77;83.73;99285.35;107045;1259;70088;-40
2023/01/21 04:03:42;;;;;;;70.10;37.70;;;;;;;1.78;83.62;99289.83;107055;1260;74249;-40
2023/01/21 04:06:13;;;;;;;70.20;37.40;;;;;;;1.75;83.50;99325.31;107074;1259;60735;-40
2023/01/21 04:08:40;;;;;;;68.60;36.90;;;;;;;1.75;83.51;99305.02;107101;1260;61126;-40
2023/01/21 04:11:07;;;;;;;67.80;37.80;;;;;;;1.71;83.25;99310.40;107091;1260;75069;-40
2023/01/21 04:13:34;;;;;;;70.70;37.70;;;;;;;1.79;83.13;99324.44;107091;1260;69922;-40
2023/01/21 04:16:02;;;;;;;72.90;37.40;;;;;;;1.75;83.32;99324.34;107087;1260;72716;-40
2023/01/21 04:18:29;;;;;;;73.90;37.50;;;;;;;1.75;83.06;99332.20;107170;1260;62152;-40
2023/01/21 04:20:56;;;;;;;67.20;37.30;;;;;;;1.78;83.22;99337.94;107060;1263;61528;-40
2023/01/21 04:23:23;;;;;;;76.10;39.00;;;;;;;1.75;83.25;99331.20;107079;1260;74928;-40
2023/01/21 04:25:50;;;;;;;67.10;35.20;;;;;;;1.70;83.37;99329.90;107052;1260;68515;-40
2023/01/21 04:28:18;;;;;;;68.50;37.00;;;;;;;1.72;83.27;99310.54;107101;1260;73903;-40
2023/01/21 04:30:46;;;;;;;69.40;35.80;;;;;;;1.74;83.39;99305.83;107487;1257;60453;-40
2023/01/21 04:33:13;;;;;;;71.10;37.50;;;;;;;1.75;83.37;99317.08;107448;1255;60229;-40
2023/01/21 04:35:41;;;;;;;68.80;35.10;;;;;;;1.69;83.05;99325.02;107389;1257;75117;-40
2023/01/21 04:38:08;;;;;;;65.50;34.70;;;;;;;1.70;83.18;99328.43;107421;1256;69828;-40
2023/01/21 04:40:35;;;;;;;69.30;36.90;;;;;;;1.74;83.10;99326.80;107472;1257;73876;-40
2023/01/21 04:43:02;;;;;;;73.10;36.90;;;;;;;1.74;83.30;99322.08;107433;1256;60595;-42
2023/01/21 04:45:29;;;;;;;67.30;35.60;;;;;;;1.68;83.17;99328.80;107423;1255;61465;-40
2023/01/21 04:47:56;;;;;;;69.10;35.50;;;;;;;1.74;82.99;99332.34;107416;1257;75090;-40
2023/01/21 04:50:23;;;;;;;74.20;37.20;;;;;;;1.79;83.08;99336.24;107490;1256;69873;-40
2023/01/21 04:52:51;;;;;;;71.70;37.10;;;;;;;1.78;82.85;99343.66;107415;1256;73778;-39
2023/01/21 04:55:18;;;;;;;63.00;33.50;;;;;;;1.75;82.68;99338.63;107443;1257;62402;-40
2023/01/21 04:57:45;;;;;;;68.90;34.40;;;;;;;1.76;82.94;99342.09;107438;1256;61619;-40
2023/01/21 05:00:14;;;;;;;71.90;35.40;;;;;;;1.77;82.53;99341.27;107463;1257;75037;-40
2023/01/21 05:02:42;;;;;;;72.20;36.50;;;;;;;1.78;82.64;99333.82;107453;1259;68210;-40
2023/01/21 05:05:09;;;;;;;59.90;32.40;;;;;;;1.74;82.67;99334.92;107426;1259;73865;-40
2023/01/21 05:07:38;;;;;;;66.00;35.70;;;;;;;1.74;82.63;99326.42;107425;1257;62167;-40
2023/01/21 05:10:06;;;;;;;65.60;34.40;;;;;;;1.74;82.68;99328.11;107425;1257;61702;-40
2023/01/21 05:12:33;;;;;;;71.60;34.90;;;;;;;1.71;82.65;99329.27;107467;1257;72673;-40
2023/01/21 05:15:00;;;;;;;62.30;33.50;;;;;;;1.65;82.77;99322.89;107431;1256;69627;-40
2023/01/21 05:17:27;;;;;;;62.20;32.50;;;;;;;1.67;82.93;99327.65;107466;1256;73886;-40
2023/01/21 05:19:54;;;;;;;63.80;34.10;;;;;;;1.68;82.97;99326.82;107409;1255;60786;-40
2023/01/21 05:22:21;;;;;;;67.60;34.20;;;;;;;1.67;82.91;99332.77;107432;1257;61522;-40
2023/01/21 05:24:48;;;;;;;61.10;33.80;;;;;;;1.65;83.03;99323.41;107473;1256;73726;-40
2023/01/21 05:27:18;;;;;;;60.90;33.10;;;;;;;1.69;82.98;99330.75;107401;1257;69696;-40
2023/01/21 05:29:45;;;;;;;66.50;33.40;;;;;;;1.67;82.68;99339.25;107434;1255;71772;-40
2023/01/21 05:32:13;;;;;;;64.10;32.20;;;;;;;1.63;82.62;99342.80;107418;1257;60716;-40
2023/01/21 05:34:40;;;;;;;61.80;32.90;;;;;;;1.62;82.90;99327.76;107419;1256;60727;-40
2023/01/21 05:37:07;;;;;;;62.40;33.00;;;;;;;1.65;83.07;99319.77;107427;1259;75020;-40
2023/01/21 05:39:34;;;;;;;64.60;33.90;;;;;;;1.62;82.88;99314.83;107448;1257;69988;-40
2023/01/21 05:42:02;;;;;;;65.00;32.50;;;;;;;1.52;83.06;99308.41;107422;1257;73861;-40
2023/01/21 05:44:29;;;;;;;59.50;31.30;;;;;;;1.62;82.78;99321.23;107472;1259;61170;-40
2023/01/21 05:46:56;;;;;;;63.90;33.10;;;;;;;1.63;82.81;99332.17;107423;1256;61419;-40
2023/01/21 05:49:26;;;;;;;61.50;31.30;;;;;;;1.58;82.71;99331.79;107459;1257;75121;-40
2023/01/21 05:51:53;;;;;;;63.60;30.00;;;;;;;1.53;82.75;99326.89;107395;1256;69939;-40
2023/01/21 05:54:20;;;;;;;60.80;31.40;;;;;;;1.57;82.95;99334.81;107437;1257;73732;-39
2023/01/21 05:56:47;;;;;;;62.00;32.10;;;;;;;1.57;82.68;99334.12;107407;1256;60640;-40
2023/01/21 05:59:14;;;;;;;58.70;31.90;;;;;;;1.51;82.85;99332.89;107417;1256;61353;-40
2023/01/21 06:01:41;;;;;;;55.70;29.60;;;;;;;1.50;82.95;99338.40;107469;1256;75021;-40
2023/01/21 06:04:08;;;;;;;59.10;31.00;;;;;;;1.50;82.81;99326.52;107452;1257;69835;-40
2023/01/21 06:06:35;;;;;;;56.80;30.30;;;;;;;1.50;83.00;99333.79;107456;1257;73851;-40
2023/01/21 06:09:02;;;;;;;58.60;29.20;;;;;;;1.48;82.87;99327.70;107451;1256;61261;-40
2023/01/21 06:11:29;;;;;;;57.10;29.00;;;;;;;1.51;82.82;99330.46;107432;1257;60459;-40
2023/01/21 06:13:56;;;;;;;55.30;28.90;;;;;;;1.53;82.84;99332.33;107445;1257;74473;-40
2023/01/21 06:16:23;;;;;;;61.60;30.10;;;;;;;1.50;82.63;99330.02;105947;1257;1003105;-40
2023/01/21 06:18:51;;;;;;;56.80;29.10;;;;;;;1.45;82.63;99338.48;107431;1256;73895;-40
2023/01/21 06:21:18;;;;;;;57.50;30.50;;;;;;;1.47;82.55;99337.34;107435;1257;60705;-40
2023/01/21 06:23:45;;;;;;;58.10;29.70;;;;;;;1.48;82.84;99336.12;107442;1256;61502;-40
2023/01/21 06:26:12;;;;;;;59.60;29.80;;;;;;;1.48;83.03;99339.23;107411;1258;74385;-40
2023/01/21 06:28:39;;;;;;;54.40;28.50;;;;;;;1.46;82.90;99340.23;107456;1255;68941;-40
2023/01/21 06:31:07;;;;;;;54.20;29.00;;;;;;;1.52;82.78;99339.27;107439;1257;73895;-40
2023/01/21 06:33:34;;;;;;;56.40;28.60;;;;;;;1.51;82.51;99338.98;107445;1257;60470;-40
2023/01/21 06:36:01;;;;;;;57.20;29.50;;;;;;;1.49;82.40;99332.55;107445;1257;61761;-40
2023/01/21 06:38:28;;;;;;;53.80;28.00;;;;;;;1.49;82.35;99335.79;107432;1256;75112;-40
2023/01/21 06:40:56;;;;;;;53.80;28.60;;;;;;;1.53;82.45;99348.64;107437;1255;68916;-40
2023/01/21 06:43:23;;;;;;;58.90;29.50;;;;;;;1.53;82.30;99356.54;107428;1256;73684;-40
2023/01/21 06:45:50;;;;;;;52.60;28.00;;;;;;;1.50;82.23;99363.16;107424;1256;62393;-40
2023/01/21 06:48:17;;;;;;;56.90;29.00;;;;;;;1.55;81.81;99363.40;107456;1257;61472;-40
2023/01/21 06:50:45;;;;;;;58.00;29.30;;;;;;;1.57;81.77;99371.36;107445;1256;75028;-40
2023/01/21 06:53:14;;;;;;;56.30;29.80;;;;;;;1.58;81.81;99378.23;107438;1257;70172;-40
2023/01/21 06:55:41;;;;;;;56.50;27.50;;;;;;;1.58;81.80;99380.59;107431;1256;73897;-40
2023/01/21 06:58:08;;;;;;;58.30;28.10;;;;;;;1.65;81.54;99393.80;107441;1256;60402;-40
2023/01/21 07:00:35;;;;;;;55.90;28.20;;;;;;;1.66;81.15;99396.49;107479;1256;61923;-40
2023/01/21 07:03:03;;;;;;;54.90;29.00;;;;;;;1.66;81.08;99395.41;107460;1256;74822;-40
2023/01/21 07:05:30;;;;;;;55.60;28.10;;;;;;;1.69;81.12;99400.45;107497;1256;68564;-40
2023/01/21 07:07:57;;;;;;;52.00;27.70;;;;;;;1.70;81.03;99398.08;107413;1256;73901;-40
2023/01/21 07:10:24;;;;;;;52.60;28.80;;;;;;;1.80;80.95;99408.86;107451;1254;60681;-40
2023/01/21 07:12:51;;;;;;;54.50;28.10;;;;;;;1.83;80.67;99414.54;107495;1257;61540;-40
2023/01/21 07:15:19;;;;;;;57.40;26.40;;;;;;;1.82;80.46;99417.75;107415;1257;74846;-40
2023/01/21 07:17:47;;;;;;;52.40;26.40;;;;;;;1.86;80.26;99421.46;107404;1256;69874;-40
2023/01/21 07:20:15;;;;;;;56.70;28.70;;;;;;;1.91;80.02;99428.25;107446;1257;73895;-40
2023/01/21 07:22:44;;;;;;;50.70;27.80;;;;;;;1.92;79.63;99433.64;107505;1257;60810;-40
2023/01/21 07:25:11;;;;;;;53.70;26.60;;;;;;;1.92;79.61;99437.65;107424;1254;61554;-40
2023/01/21 07:27:42;;;;;;;46.40;25.80;;;;;;;1.97;79.57;99441.66;107459;1255;74983;-40
2023/01/21 07:30:15;;;;;;;51.20;24.80;;;;;;;2.05;79.18;99442.71;107444;1256;68689;-39
2023/01/21 07:32:42;;;;;;;52.60;26.30;;;;;;;2.06;78.83;99446.16;107430;1258;73881;-40
2023/01/21 07:35:09;;;;;;;49.40;25.70;;;;;;;2.03;78.68;99456.59;107472;1255;60313;-42
2023/01/21 07:37:38;;;;;;;49.50;25.90;;;;;;;1.99;78.65;99467.36;107402;1255;61608;-40
2023/01/21 07:40:06;;;;;;;51.20;25.90;;;;;;;1.99;78.25;99472.09;107473;1255;73463;-39
2023/01/21 07:42:33;;;;;;;56.60;28.80;;;;;;;2.04;78.59;99478.94;107519;1256;69656;-40
2023/01/21 07:45:02;;;;;;;55.10;27.70;;;;;;;1.98;78.38;99473.28;107481;1256;73242;-39
2023/01/21 07:47:29;;;;;;;50.60;29.40;;;;;;;2.03;78.51;99490.89;107498;1256;60222;-40
2023/01/21 07:49:56;;;;;;;51.60;26.60;;;;;;;2.00;78.58;99489.13;107439;1257;61465;-39
2023/01/21 07:52:25;;;;;;;44.90;24.20;;;;;;;1.99;78.46;99489.09;107474;1255;75008;-39
2023/01/21 07:54:52;;;;;;;53.40;25.20;;;;;;;2.05;78.53;99495.50;107458;1259;68892;-40
2023/01/21 07:57:19;;;;;;;48.90;26.80;;;;;;;2.08;78.14;99492.23;107439;1257;73748;-40
2023/01/21 07:59:46;;;;;;;48.20;25.10;;;;;;;2.07;77.96;99485.64;107438;1256;60552;-40
2023/01/21 08:02:13;;;;;;;44.40;25.60;;;;;;;2.06;77.96;99494.13;107429;1257;61372;-40
2023/01/21 08:04:41;;;;;;;47.50;25.00;;;;;;;2.01;77.92;99492.74;107428;1257;75101;-40
2023/01/21 08:07:08;;;;;;;42.80;25.20;;;;;;;2.01;78.13;99496.15;107492;1255;69894;-40
2023/01/21 08:09:40;;;;;;;46.70;26.40;;;;;;;2.02;78.12;99497.48;107435;1257;73844;-40
2023/01/21 08:12:07;;;;;;;44.70;26.80;;;;;;;2.00;77.97;99496.92;107397;1257;60651;-40
2023/01/21 08:14:34;;;;;;;51.50;26.60;;;;;;;1.99;77.78;99502.42;107445;1257;60491;-40
2023/01/21 08:17:02;;;;;;;49.40;26.30;;;;;;;1.97;77.95;99501.70;107404;1257;75134;-40
2023/01/21 08:19:29;;;;;;;39.90;23.60;;;;;;;1.99;78.06;99505.83;107408;1257;68693;-40
2023/01/21 08:21:56;;;;;;;49.70;25.30;;;;;;;2.10;77.92;99511.44;107464;1257;72810;-39
2023/01/21 08:24:23;;;;;;;48.10;26.30;;;;;;;2.15;78.08;99508.32;107483;1257;61032;-40
2023/01/21 08:26:50;;;;;;;46.50;26.60;;;;;;;2.18;77.89;99510.61;107435;1255;61482;-40
2023/01/21 08:29:17;;;;;;;51.10;27.40;;;;;;;2.17;77.56;99511.77;107395;1255;74933;-40
2023/01/21 08:31:44;;;;;;;46.00;24.20;;;;;;;2.13;77.76;99516.38;107415;1259;69841;-40
2023/01/21 08:34:11;;;;;;;52.90;26.60;;;;;;;2.18;77.32;99515.86;107416;1257;72736;-40
2023/01/21 08:36:38;;;;;;;50.50;26.10;;;;;;;2.21;77.28;99515.95;107495;1257;60623;-40
2023/01/21 08:39:05;;;;;;;52.20;27.80;;;;;;;2.21;77.23;99518.53;107446;1259;60283;-40
2023/01/21 08:41:32;;;;;;;51.20;28.30;;;;;;;2.21;77.46;99523.72;107420;1256;75025;-40
2023/01/21 08:44:00;;;;;;;50.30;27.40;;;;;;;2.20;77.24;99537.15;107484;1255;69770;-40
2023/01/21 08:46:27;;;;;;;51.10;25.70;;;;;;;2.21;76.96;99538.02;107256;1255;214079;-40
2023/01/21 08:50:18;;;;;;;46.90;25.40;;;;;;;2.31;76.79;99537.24;104212;1293;601093;-39
2023/01/21 08:52:54;;;;;;;49.00;28.60;;;;;;;2.30;76.72;99543.44;106679;1267;60739;-38
2023/01/21 08:55:25;;;;;;;52.30;29.10;;;;;;;2.29;76.66;99543.77;106637;1265;61919;-40
2023/01/21 08:57:54;;;;;;;54.00;28.60;;;;;;;2.25;76.92;99550.69;106605;1267;73797;-40
2023/01/21 09:00:22;;;;;;;52.10;27.50;;;;;;;2.24;76.94;99553.98;106666;1265;70870;-39
2023/01/21 09:02:50;;;;;;;55.60;27.40;;;;;;;2.28;76.71;99565.04;106529;1264;220959;-40
2023/01/21 09:05:17;;;;;;;55.40;27.90;;;;;;;2.30;76.46;99563.27;106683;1264;59271;-39
2023/01/21 09:07:45;;;;;;;57.40;29.30;;;;;;;2.26;76.55;99564.38;106639;1263;62110;-39
2023/01/21 09:10:59;;;;;;;53.30;29.40;;;;;;;2.20;76.71;99552.88;106691;1264;73815;-40
2023/01/21 09:13:06;;;;;;;56.30;31.90;;;;;;;2.14;77.04;99548.98;106647;1264;69245;-40
2023/01/21 09:15:40;;;;;;;52.30;27.80;;;;;;;2.08;77.22;99550.98;106641;1267;74171;-39
2023/01/21 09:18:08;;;;;;;56.80;30.90;;;;;;;2.10;77.60;99545.23;106772;1263;60912;-40
2023/01/21 09:20:35;;;;;;;62.40;32.00;;;;;;;2.10;77.71;99536.13;106812;1264;59586;-40
2023/01/21 09:23:22;;;;;;;61.20;33.10;;;;;;;2.07;77.95;99529.89;106788;1264;72628;-40
2023/01/21 09:25:55;;;;;;;55.70;29.90;;;;;;;2.06;78.17;99525.73;106765;1264;70485;-40
2023/01/21 09:28:22;;;;;;;52.60;28.90;;;;;;;2.10;78.30;99539.13;106716;1264;71991;-40
2023/01/21 09:30:56;;;;;;;57.40;30.90;;;;;;;2.15;78.20;99534.27;107122;1261;61021;-40
2023/01/21 09:33:24;;;;;;;58.60;31.10;;;;;;;2.19;78.42;99528.58;107111;1257;62389;-40
2023/01/21 09:35:54;;;;;;;56.90;32.40;;;;;;;2.20;78.66;99525.76;107213;1258;74458;-40
2023/01/21 09:38:22;;;;;;;58.70;29.80;;;;;;;2.25;78.66;99529.99;107248;1258;69634;-40
2023/01/21 09:40:49;;;;;;;52.70;29.50;;;;;;;2.34;78.31;99519.59;107201;1257;72891;-40
2023/01/21 09:43:27;;;;;;;56.10;30.50;;;;;;;2.40;78.07;99522.09;107207;1257;59729;-40
2023/01/21 09:45:56;;;;;;;62.10;32.70;;;;;;;2.42;78.21;99512.72;107276;1257;61483;-40
2023/01/21 09:48:43;;;;;;;58.70;30.80;;;;;;;2.39;77.94;99512.52;107256;1257;75320;-40
2023/01/21 09:51:37;;;;;;;62.00;31.20;;;;;;;2.37;77.78;99523.50;107202;1257;69409;-40
2023/01/21 09:54:04;;;;;;;54.70;32.80;;;;;;;2.36;77.92;99520.56;107148;1257;73352;-40
2023/01/21 09:56:47;;;;;;;61.10;32.50;;;;;;;2.29;78.00;99529.91;107204;1257;59711;-40
2023/01/21 09:59:32;;;;;;;57.60;31.10;;;;;;;2.22;77.88;99538.90;107111;1262;59572;-40
2023/01/21 10:01:59;;;;;;;65.00;31.60;;;;;;;2.18;78.16;99544.23;107261;1257;71739;-40
2023/01/21 10:04:39;;;;;;;58.80;31.70;;;;;;;2.19;78.26;99542.20;107082;1257;70159;-40
2023/01/21 10:07:10;;;;;;;56.20;32.20;;;;;;;2.16;78.72;99537.71;107205;1262;75709;-40
2023/01/21 10:09:53;;;;;;;64.80;33.30;;;;;;;2.10;78.63;99520.36;107239;1258;60669;-40
2023/01/21 10:12:35;;;;;;;55.40;30.00;;;;;;;2.14;79.11;99525.79;107213;1261;61918;-40
2023/01/21 10:15:30;;;;;;;53.50;30.70;;;;;;;2.26;78.99;99537.84;107187;1257;71813;-40
2023/01/21 10:17:59;;;;;;;60.20;31.50;;;;;;;2.31;78.81;99531.05;107190;1257;67359;-40
2023/01/21 10:20:31;;;;;;;;;;;;;;;2.30;78.61;99531.08;107200;1257;74060;-40
2023/01/21 10:23:04;;;;;;;63.10;31.10;;;;;;;2.17;78.88;99512.35;107162;1257;61391;-40
2023/01/21 10:25:32;;;;;;;51.30;29.10;;;;;;;2.14;79.03;99521.83;107213;1257;62406;-40
2023/01/21 10:28:24;;;;;;;56.70;29.60;;;;;;;2.15;79.14;99526.94;107292;1257;73309;-40
2023/01/21 10:30:57;;;;;;;58.50;30.20;;;;;;;2.12;79.32;99525.92;107231;1257;70139;-40
2023/01/21 10:33:25;;;;;;;53.10;29.10;;;;;;;2.07;79.75;99517.16;107071;1256;73689;-40
2023/01/21 10:36:25;;;;;;;53.40;29.00;;;;;;;1.99;79.83;99508.94;107019;1258;62309;-39
2023/01/21 10:39:21;;;;;;;56.50;29.40;;;;;;;2.06;80.08;99531.84;107172;1256;60709;-39
2023/01/21 10:42:16;;;;;;;60.90;30.20;;;;;;;2.01;80.68;99525.91;107160;1256;73539;-40
2023/01/21 10:44:44;;;;;;;51.60;28.30;;;;;;;1.96;81.22;99520.70;107238;1262;67548;-40
2023/01/21 10:47:35;;;;;;;54.50;27.70;;;;;;;1.99;81.44;99527.27;107222;1257;71077;-40
2023/01/21 10:50:26;;;;;;;56.20;29.70;;;;;;;1.99;81.70;99526.95;107182;1257;61310;-40
2023/01/21 10:53:11;;;;;;;51.30;27.20;;;;;;;1.98;82.08;99522.20;106986;1256;61632;-40
2023/01/21 10:55:58;;;;;;;46.90;26.60;;;;;;;2.00;81.96;99513.66;107208;1257;73362;-40
2023/01/21 10:58:27;;;;;;;46.00;26.30;;;;;;;1.99;82.32;99517.11;107233;1263;70179;-40
2023/01/21 11:00:56;;;;;;;44.10;23.90;;;;;;;1.96;82.29;99523.21;107213;1257;74383;-40
2023/01/21 11:03:34;;;;;;;51.30;28.80;;;;;;;1.97;82.58;99519.94;107182;1256;62070;-40
2023/01/21 11:06:03;;;;;;;52.30;26.80;;;;;;;2.05;83.06;99502.70;107235;1257;61366;-40
2023/01/21 11:08:30;;;;;;;56.40;30.40;;;;;;;2.10;83.68;99516.45;107198;1263;75352;-40
2023/01/21 11:10:57;;;;;;;56.20;27.80;;;;;;;2.15;83.70;99520.96;107266;1257;70032;-40
2023/01/21 11:13:25;;;;;;;51.30;28.10;;;;;;;2.20;84.11;99520.95;107054;1257;74028;-40
2023/01/21 11:15:53;;;;;;;51.60;27.80;;;;;;;2.28;84.11;99509.02;107241;1263;62682;-40
2023/01/21 11:18:34;;;;;;;47.50;25.40;;;;;;;2.31;84.19;99526.11;107133;1257;61396;-40
2023/01/21 11:21:14;;;;;;;46.30;24.90;;;;;;;2.31;83.09;99530.20;107214;1256;74224;-40
2023/01/21 11:23:41;;;;;;;47.00;25.50;;;;;;;2.29;82.63;99535.63;107066;1257;69089;-40
2023/01/21 11:26:17;;;;;;;47.90;25.30;;;;;;;2.22;82.55;99534.93;107087;1257;74164;-41
2023/01/21 11:28:45;;;;;;;47.60;25.30;;;;;;;2.06;82.95;99527.28;107021;1256;63350;-41
2023/01/21 11:31:13;;;;;;;44.80;25.40;;;;;;;2.15;83.09;99540.94;107188;1257;60545;-41
2023/01/21 11:33:41;;;;;;;55.50;26.70;;;;;;;2.15;83.19;99547.42;107278;1257;72231;-41
2023/01/21 11:36:19;;;;;;;51.50;26.10;;;;;;;2.11;83.34;99556.34;107237;1257;69357;-40
2023/01/21 11:38:48;;;;;;;49.90;26.40;;;;;;;2.11;83.67;99546.87;107274;1257;74575;-41
2023/01/21 11:41:18;;;;;;;48.60;26.60;;;;;;;2.16;83.64;99543.71;107267;1257;60944;-41